createdAt,value
2017-09-06T00:01:29.622Z,4.83
2017-09-06T00:03:56.090Z,3.90
2017-09-06T00:06:22.540Z,4.70
2017-09-06T00:08:49.735Z,5.67
2017-09-06T00:11:16.122Z,8.70
2017-09-06T00:13:42.596Z,5.23
2017-09-06T00:16:08.966Z,4.83
2017-09-06T00:18:35.303Z,5.57
2017-09-06T00:21:01.684Z,5.73
2017-09-06T00:23:28.095Z,4.70
2017-09-06T00:25:54.563Z,4.13
2017-09-06T00:28:20.995Z,4.60
2017-09-06T00:30:47.424Z,4.73
2017-09-06T00:33:13.795Z,5.00
2017-09-06T00:35:40.251Z,5.03
2017-09-06T00:38:06.642Z,4.73
2017-09-06T00:40:33.007Z,5.50
2017-09-06T00:42:59.415Z,4.80
2017-09-06T00:45:25.867Z,5.07
2017-09-06T00:47:52.295Z,4.00
2017-09-06T00:50:18.755Z,5.90
2017-09-06T00:52:45.359Z,6.13
2017-09-06T00:55:11.744Z,5.30
2017-09-06T00:57:38.174Z,4.60
2017-09-06T01:00:04.630Z,6.10
2017-09-06T01:02:31.059Z,5.17
2017-09-06T01:04:57.458Z,4.13
2017-09-06T01:07:23.903Z,4.93
2017-09-06T01:09:50.373Z,5.00
2017-09-06T01:12:16.822Z,5.40
2017-09-06T01:14:43.198Z,4.60
2017-09-06T01:17:09.699Z,4.77
2017-09-06T01:19:36.049Z,5.87
2017-09-06T01:22:02.459Z,4.97
2017-09-06T01:24:28.944Z,4.93
2017-09-06T01:26:55.554Z,4.83
2017-09-06T01:29:21.972Z,5.17
2017-09-06T01:31:48.411Z,5.10
2017-09-06T01:34:14.935Z,4.77
2017-09-06T01:36:41.411Z,6.07
2017-09-06T01:39:07.803Z,5.00
2017-09-06T01:41:34.196Z,4.70
2017-09-06T01:44:01.659Z,4.13
2017-09-06T01:46:28.058Z,4.70
2017-09-06T01:48:54.454Z,4.57
2017-09-06T01:51:20.848Z,4.47
2017-09-06T01:53:48.363Z,4.70
2017-09-06T01:56:14.736Z,4.43
2017-09-06T01:58:41.187Z,5.60
2017-09-06T02:01:07.619Z,4.33
2017-09-06T02:03:34.068Z,4.97
2017-09-06T02:06:00.495Z,4.40
2017-09-06T02:08:26.915Z,4.13
2017-09-06T02:10:53.262Z,4.27
2017-09-06T02:13:19.575Z,4.50
2017-09-06T02:15:45.916Z,4.33
2017-09-06T02:18:12.254Z,4.70
2017-09-06T02:20:38.584Z,5.43
2017-09-06T02:23:04.954Z,4.33
2017-09-06T02:25:31.374Z,4.40
2017-09-06T02:27:57.850Z,4.87
2017-09-06T02:30:24.274Z,4.17
2017-09-06T02:32:50.723Z,4.67
2017-09-06T02:35:17.126Z,4.60
2017-09-06T02:37:43.475Z,4.43
2017-09-06T02:40:09.903Z,4.40
2017-09-06T02:42:36.261Z,4.67
2017-09-06T02:45:02.730Z,4.77
2017-09-06T02:47:29.131Z,3.70
2017-09-06T02:49:55.606Z,5.60
2017-09-06T02:52:21.970Z,6.23
2017-09-06T02:54:48.358Z,3.97
2017-09-06T02:57:14.814Z,4.00
2017-09-06T02:59:41.258Z,4.43
2017-09-06T03:02:07.662Z,4.33
2017-09-06T03:04:34.002Z,4.40
2017-09-06T03:07:01.370Z,5.60
2017-09-06T03:09:27.790Z,4.10
2017-09-06T03:11:54.363Z,3.87
2017-09-06T03:14:20.774Z,4.17
2017-09-06T03:16:47.215Z,6.60
2017-09-06T03:19:13.673Z,4.17
2017-09-06T03:21:40.068Z,3.30
2017-09-06T03:24:06.623Z,4.87
2017-09-06T03:26:33.043Z,3.83
2017-09-06T03:28:59.401Z,3.53
2017-09-06T03:31:25.767Z,3.17
2017-09-06T03:33:52.211Z,3.20
2017-09-06T03:36:18.652Z,3.30
2017-09-06T03:38:45.054Z,3.10
2017-09-06T03:41:11.407Z,4.37
2017-09-06T03:43:37.832Z,4.10
2017-09-06T03:46:04.218Z,4.30
2017-09-06T03:48:30.762Z,3.53
2017-09-06T03:50:57.155Z,6.20
2017-09-06T03:53:23.590Z,4.00
2017-09-06T03:55:49.975Z,5.83
2017-09-06T03:58:17.340Z,3.23
2017-09-06T04:00:43.733Z,3.63
2017-09-06T04:03:10.160Z,3.30
2017-09-06T04:05:36.516Z,3.30
2017-09-06T04:08:02.907Z,3.60
2017-09-06T04:10:29.283Z,2.70
2017-09-06T04:12:55.618Z,3.57
2017-09-06T04:15:22.244Z,3.63
2017-09-06T04:17:48.613Z,2.67
2017-09-06T04:20:15.036Z,2.57
2017-09-06T04:22:41.381Z,4.57
2017-09-06T04:25:08.116Z,2.63
2017-09-06T04:27:34.602Z,2.50
2017-09-06T04:30:01.050Z,2.27
2017-09-06T04:32:27.640Z,3.00
2017-09-06T04:34:53.983Z,2.80
2017-09-06T04:37:20.446Z,2.77
2017-09-06T04:39:46.842Z,3.93
2017-09-06T04:42:13.280Z,3.50
2017-09-06T04:44:39.927Z,3.67
2017-09-06T04:47:06.303Z,3.43
2017-09-06T04:49:32.699Z,3.97
2017-09-06T04:51:59.035Z,3.50
2017-09-06T04:54:25.375Z,3.83
2017-09-06T04:56:51.719Z,4.70
2017-09-06T04:59:18.062Z,3.53
2017-09-06T05:01:44.418Z,4.83
2017-09-06T05:04:10.967Z,3.13
2017-09-06T05:06:37.285Z,2.87
2017-09-06T05:09:04.729Z,3.90
2017-09-06T05:11:31.077Z,4.90
2017-09-06T05:13:57.402Z,4.50
2017-09-06T05:16:23.755Z,3.27
2017-09-06T05:18:50.176Z,3.97
2017-09-06T05:21:17.431Z,3.67
2017-09-06T05:23:43.794Z,4.30
2017-09-06T05:26:10.219Z,9.90
2017-09-06T05:28:36.662Z,3.00
2017-09-06T05:31:03.123Z,3.73
2017-09-06T05:33:29.543Z,3.30
2017-09-06T05:35:55.998Z,3.10
2017-09-06T05:38:22.405Z,3.87
2017-09-06T05:40:48.780Z,4.07
2017-09-06T05:43:15.219Z,3.20
2017-09-06T05:45:41.618Z,3.50
2017-09-06T05:48:07.962Z,3.73
2017-09-06T05:50:34.346Z,5.33
2017-09-06T05:53:00.763Z,4.63
2017-09-06T05:55:27.179Z,2.90
2017-09-06T05:57:53.626Z,2.70
2017-09-06T06:00:20.070Z,3.20
2017-09-06T06:02:46.531Z,3.73
2017-09-06T06:05:13.004Z,4.80
2017-09-06T06:07:40.395Z,2.97
2017-09-06T06:10:06.750Z,3.13
2017-09-06T06:12:33.103Z,2.90
2017-09-06T06:14:59.522Z,3.60
2017-09-06T06:17:25.978Z,3.27
2017-09-06T06:19:52.398Z,3.00
2017-09-06T06:22:18.836Z,3.10
2017-09-06T06:24:45.282Z,4.70
2017-09-06T06:27:11.823Z,3.83
2017-09-06T06:29:38.271Z,4.40
2017-09-06T06:32:04.698Z,4.00
2017-09-06T06:34:30.998Z,4.50
2017-09-06T06:36:57.380Z,3.83
2017-09-06T06:39:24.043Z,2.63
2017-09-06T06:41:50.434Z,3.30
2017-09-06T06:44:16.798Z,4.20
2017-09-06T06:46:43.213Z,6.90
2017-09-06T06:49:10.607Z,3.20
2017-09-06T06:51:37.019Z,4.27
2017-09-06T06:54:03.349Z,2.77
2017-09-06T06:56:29.716Z,2.77
2017-09-06T06:58:56.114Z,3.47
2017-09-06T07:01:22.440Z,2.93
2017-09-06T07:03:48.955Z,2.40
2017-09-06T07:06:15.342Z,3.33
2017-09-06T07:08:41.819Z,3.07
2017-09-06T07:11:08.230Z,2.73
2017-09-06T07:13:36.037Z,3.23
2017-09-06T07:16:02.432Z,6.47
2017-09-06T07:18:29.054Z,3.80
2017-09-06T07:21:01.655Z,3.93
2017-09-06T07:23:29.427Z,3.33
2017-09-06T07:25:55.768Z,2.40
2017-09-06T07:28:22.279Z,3.40
2017-09-06T07:30:48.658Z,2.57
2017-09-06T07:33:15.100Z,3.10
2017-09-06T07:35:41.539Z,2.70
2017-09-06T07:38:08.875Z,2.73
2017-09-06T07:40:35.239Z,2.00
2017-09-06T07:43:01.703Z,2.67
2017-09-06T07:45:28.150Z,2.50
2017-09-06T07:47:54.560Z,3.07
2017-09-06T07:50:20.975Z,2.10
2017-09-06T07:52:47.495Z,3.20
2017-09-06T07:55:13.841Z,2.77
2017-09-06T07:57:40.219Z,2.43
2017-09-06T08:00:06.648Z,2.37
2017-09-06T08:02:33.275Z,1.70
2017-09-06T08:04:59.731Z,2.27
2017-09-06T08:09:44.242Z,2.80
2017-09-06T08:12:10.644Z,2.40
2017-09-06T08:14:36.960Z,2.40
2017-09-06T08:17:03.418Z,1.73
2017-09-06T08:19:29.885Z,3.53
2017-09-06T08:21:56.278Z,2.57
2017-09-06T08:24:22.632Z,2.40
2017-09-06T08:26:49.058Z,2.00
2017-09-06T08:29:15.438Z,2.20
2017-09-06T08:31:44.308Z,2.17
2017-09-06T08:34:10.750Z,1.80
2017-09-06T08:36:37.178Z,2.00
2017-09-06T08:39:05.096Z,1.60
2017-09-06T08:41:31.968Z,4.03
2017-09-06T08:43:58.398Z,4.07
2017-09-06T08:46:24.771Z,2.30
2017-09-06T08:48:51.093Z,2.17
2017-09-06T08:51:17.554Z,1.80
2017-09-06T08:53:44.107Z,2.00
2017-09-06T08:56:10.430Z,2.20
2017-09-06T08:58:36.760Z,1.90
2017-09-06T09:01:03.148Z,2.13
2017-09-06T09:03:29.519Z,3.17
2017-09-06T09:06:04.248Z,1.70
2017-09-06T09:08:31.425Z,1.50
2017-09-06T09:10:57.887Z,1.93
2017-09-06T09:13:24.352Z,2.07
2017-09-06T09:15:50.755Z,1.60
2017-09-06T09:18:17.083Z,1.47
2017-09-06T09:20:43.404Z,1.83
2017-09-06T09:23:09.775Z,1.37
2017-09-06T09:25:36.307Z,1.40
2017-09-06T09:28:02.749Z,1.30
2017-09-06T09:30:29.168Z,1.93
2017-09-06T09:32:55.701Z,1.37
2017-09-06T09:35:22.070Z,3.50
2017-09-06T09:37:48.433Z,1.43
2017-09-06T09:40:14.890Z,2.20
2017-09-06T09:42:41.255Z,4.00
2017-09-06T09:45:07.637Z,2.90
2017-09-06T09:47:36.664Z,1.73
2017-09-06T09:50:03.037Z,1.87
2017-09-06T09:52:29.378Z,3.30
2017-09-06T09:54:55.771Z,5.40
2017-09-06T09:57:22.149Z,3.57
2017-09-06T09:59:48.507Z,2.60
2017-09-06T10:02:15.015Z,1.77
2017-09-06T10:04:41.378Z,1.63
2017-09-06T10:07:08.720Z,1.60
2017-09-06T10:09:35.107Z,1.77
2017-09-06T10:12:01.691Z,2.00
2017-09-06T10:14:28.150Z,1.60
2017-09-06T10:16:54.629Z,2.17
2017-09-06T10:19:21.033Z,2.70
2017-09-06T10:21:47.507Z,2.00
2017-09-06T10:24:13.863Z,1.70
2017-09-06T10:26:40.178Z,1.33
2017-09-06T10:29:06.606Z,1.97
2017-09-06T10:31:33.026Z,1.20
2017-09-06T10:33:59.359Z,1.70
2017-09-06T10:36:25.839Z,1.20
2017-09-06T10:38:52.241Z,2.10
2017-09-06T10:41:20.741Z,1.60
2017-09-06T10:43:47.178Z,1.60
2017-09-06T10:46:14.558Z,1.30
2017-09-06T10:48:40.883Z,1.13
2017-09-06T10:51:07.298Z,0.90
2017-09-06T10:53:33.909Z,1.10
2017-09-06T10:56:00.293Z,1.10
2017-09-06T10:58:26.703Z,1.10
2017-09-06T11:00:53.086Z,3.30
2017-09-06T11:03:19.431Z,1.63
2017-09-06T11:05:52.658Z,1.23
2017-09-06T11:08:19.720Z,1.87
2017-09-06T11:10:46.066Z,2.80
2017-09-06T11:13:16.207Z,1.00
2017-09-06T11:15:42.622Z,1.13
2017-09-06T11:18:08.990Z,1.73
2017-09-06T11:20:35.441Z,1.00
2017-09-06T11:23:01.866Z,1.87
2017-09-06T11:25:28.307Z,0.93
2017-09-06T11:27:54.723Z,0.90
2017-09-06T11:30:21.062Z,2.00
2017-09-06T11:32:47.587Z,1.70
2017-09-06T11:35:13.935Z,1.20
2017-09-06T11:37:40.389Z,1.00
2017-09-06T11:40:06.736Z,1.20
2017-09-06T11:42:33.151Z,1.20
2017-09-06T11:44:59.598Z,2.60
2017-09-06T11:47:26.130Z,1.67
2017-09-06T11:49:52.473Z,1.27
2017-09-06T11:52:18.803Z,2.80
2017-09-06T11:54:45.147Z,1.43
2017-09-06T11:57:11.618Z,1.50
2017-09-06T11:59:38.027Z,1.60
2017-09-06T12:02:04.448Z,1.73
2017-09-06T12:04:30.867Z,2.40
2017-09-06T12:06:57.282Z,1.70
2017-09-06T12:09:23.718Z,1.53
2017-09-06T12:11:50.163Z,2.10
2017-09-06T12:14:16.493Z,2.57
2017-09-06T12:16:42.966Z,2.00
2017-09-06T12:19:10.352Z,1.33
2017-09-06T12:21:36.798Z,3.33
2017-09-06T12:24:04.156Z,1.37
2017-09-06T12:26:30.561Z,3.13
2017-09-06T12:28:56.925Z,1.43
2017-09-06T12:31:23.457Z,2.90
2017-09-06T12:33:49.792Z,1.97
2017-09-06T12:36:16.178Z,2.50
2017-09-06T12:38:42.599Z,2.23
2017-09-06T12:41:08.996Z,2.53
2017-09-06T12:43:35.398Z,1.73
2017-09-06T12:46:01.766Z,3.10
2017-09-06T12:48:28.165Z,2.20
2017-09-06T12:50:54.611Z,2.60
2017-09-06T12:53:21.204Z,2.40
2017-09-06T12:55:47.602Z,2.03
2017-09-06T12:58:14.003Z,2.83
2017-09-06T13:00:40.416Z,2.20
2017-09-06T13:03:06.771Z,2.20
2017-09-06T13:05:33.123Z,2.40
2017-09-06T13:07:59.479Z,2.10
2017-09-06T13:10:25.916Z,2.23
2017-09-06T13:12:52.326Z,2.80
2017-09-06T13:15:18.774Z,1.87
2017-09-06T13:17:45.199Z,2.57
2017-09-06T13:20:11.538Z,1.67
2017-09-06T13:22:37.959Z,1.20
2017-09-06T13:25:04.318Z,1.20
2017-09-06T13:27:30.809Z,2.13
2017-09-06T13:30:00.984Z,2.53
2017-09-06T13:32:27.318Z,1.40
2017-09-06T13:34:53.739Z,1.57
2017-09-06T13:37:20.663Z,1.77
2017-09-06T13:39:47.055Z,1.40
2017-09-06T13:42:17.832Z,2.47
2017-09-06T13:44:44.269Z,1.37
2017-09-06T13:47:10.723Z,1.40
2017-09-06T13:49:37.119Z,1.53
2017-09-06T13:52:03.551Z,1.17
2017-09-06T13:54:29.988Z,1.23
2017-09-06T13:56:56.338Z,1.53
2017-09-06T13:59:22.703Z,1.83
2017-09-06T14:01:49.103Z,1.00
2017-09-06T14:04:15.572Z,1.63
2017-09-06T14:06:41.987Z,2.60
2017-09-06T14:09:08.387Z,1.83
2017-09-06T14:11:34.747Z,3.63
2017-09-06T14:14:01.164Z,1.57
2017-09-06T14:16:27.631Z,2.80
2017-09-06T14:18:54.062Z,6.87
2017-09-06T14:21:20.394Z,1.20
2017-09-06T14:23:46.746Z,1.63
2017-09-06T14:26:13.184Z,2.10
2017-09-06T14:28:39.629Z,1.37
2017-09-06T14:31:06.087Z,2.73
2017-09-06T14:33:32.482Z,3.40
2017-09-06T14:35:58.996Z,1.90
2017-09-06T14:38:25.367Z,1.50
2017-09-06T14:40:51.798Z,1.23
2017-09-06T14:43:18.158Z,2.03
2017-09-06T14:45:44.539Z,2.03
2017-09-06T14:48:11.089Z,2.70
2017-09-06T14:50:37.468Z,2.20
2017-09-06T14:53:04.601Z,1.40
2017-09-06T14:55:30.954Z,2.60
2017-09-06T14:57:57.390Z,1.53
2017-09-06T15:00:23.828Z,3.20
2017-09-06T15:02:50.314Z,4.80
2017-09-06T15:05:16.719Z,1.20
2017-09-06T15:07:43.061Z,1.10
2017-09-06T15:10:09.490Z,1.00
2017-09-06T15:12:35.927Z,1.47
2017-09-06T15:15:02.406Z,1.80
2017-09-06T15:17:28.827Z,3.43
2017-09-06T15:19:55.275Z,1.30
2017-09-06T15:22:21.672Z,1.87
2017-09-06T15:24:48.146Z,1.97
2017-09-06T15:27:14.583Z,1.03
2017-09-06T15:29:42.031Z,3.03
2017-09-06T15:32:08.506Z,1.77
2017-09-06T15:34:34.858Z,1.37
2017-09-06T15:37:01.256Z,1.70
2017-09-06T15:39:27.675Z,1.60
2017-09-06T15:41:59.492Z,2.00
2017-09-06T15:44:25.874Z,1.30
2017-09-06T15:46:52.311Z,2.03
2017-09-06T15:49:18.768Z,1.87
2017-09-06T15:51:45.216Z,2.03
2017-09-06T15:54:11.568Z,1.10
2017-09-06T15:56:37.963Z,1.73
2017-09-06T15:59:04.424Z,1.57
2017-09-06T16:01:30.827Z,2.20
2017-09-06T16:03:57.224Z,0.93
2017-09-06T16:06:23.642Z,1.57
2017-09-06T16:08:50.100Z,1.70
2017-09-06T16:11:16.580Z,2.00
2017-09-06T16:13:42.927Z,3.43
2017-09-06T16:16:09.295Z,1.17
2017-09-06T16:18:35.762Z,1.60
2017-09-06T16:21:02.195Z,1.70
2017-09-06T16:23:34.822Z,2.00
2017-09-06T16:26:01.131Z,1.20
2017-09-06T16:28:30.227Z,1.63
2017-09-06T16:30:56.629Z,1.90
2017-09-06T16:33:23.057Z,1.00
2017-09-06T16:35:49.687Z,1.83
2017-09-06T16:38:16.431Z,1.70
2017-09-06T16:40:42.863Z,0.87
2017-09-06T16:43:09.258Z,2.03
2017-09-06T16:45:35.663Z,1.30
2017-09-06T16:48:02.112Z,1.87
2017-09-06T16:50:28.538Z,1.90
2017-09-06T16:52:54.904Z,2.63
2017-09-06T16:55:21.310Z,1.13
2017-09-06T16:57:47.751Z,1.60
2017-09-06T17:00:14.109Z,1.93
2017-09-06T17:02:40.577Z,1.90
2017-09-06T17:05:13.241Z,2.20
2017-09-06T17:07:39.639Z,1.90
2017-09-06T17:10:06.055Z,5.40
2017-09-06T17:12:32.400Z,1.67
2017-09-06T17:14:58.762Z,3.10
2017-09-06T17:17:25.188Z,1.30
2017-09-06T17:19:51.594Z,2.03
2017-09-06T17:22:17.937Z,3.90
2017-09-06T17:24:44.391Z,3.60
2017-09-06T17:27:10.787Z,3.60
2017-09-06T17:29:37.178Z,1.80
2017-09-06T17:32:03.580Z,2.23
2017-09-06T17:34:29.978Z,2.00
2017-09-06T17:36:56.422Z,5.13
2017-09-06T17:39:22.859Z,3.87
2017-09-06T17:41:49.287Z,3.10
2017-09-06T17:44:15.632Z,2.17
2017-09-06T17:46:48.404Z,2.23
2017-09-06T17:49:15.472Z,1.97
2017-09-06T17:51:41.896Z,1.47
2017-09-06T17:54:08.364Z,4.60
2017-09-06T17:56:34.810Z,2.80
2017-09-06T17:59:01.313Z,2.53
2017-09-06T18:01:27.745Z,1.37
2017-09-06T18:03:55.138Z,1.50
2017-09-06T18:06:21.538Z,1.40
2017-09-06T18:08:48.875Z,1.90
2017-09-06T18:11:15.280Z,1.20
2017-09-06T18:13:41.655Z,1.20
2017-09-06T18:16:08.082Z,2.20
2017-09-06T18:18:34.502Z,1.70
2017-09-06T18:21:01.034Z,1.50
2017-09-06T18:23:27.482Z,1.90
2017-09-06T18:25:53.925Z,2.53
2017-09-06T18:28:20.364Z,1.83
2017-09-06T18:30:46.774Z,3.63
2017-09-06T18:33:13.247Z,3.43
2017-09-06T18:35:39.791Z,2.70
2017-09-06T18:38:06.268Z,3.90
2017-09-06T18:40:32.732Z,1.67
2017-09-06T18:42:59.188Z,2.50
2017-09-06T18:45:26.791Z,1.47
2017-09-06T18:47:53.179Z,3.97
2017-09-06T18:50:19.593Z,2.00
2017-09-06T18:52:46.035Z,3.80
2017-09-06T18:55:12.867Z,1.30
2017-09-06T18:57:39.331Z,1.80
2017-09-06T19:00:05.783Z,2.33
2017-09-06T19:02:32.320Z,1.53
2017-09-06T19:04:58.739Z,5.37
2017-09-06T19:07:25.380Z,2.80
2017-09-06T19:09:58.911Z,2.20
2017-09-06T19:12:25.347Z,2.40
2017-09-06T19:14:51.766Z,3.27
2017-09-06T19:17:18.103Z,1.93
2017-09-06T19:19:44.620Z,3.20
2017-09-06T19:22:10.976Z,3.37
2017-09-06T19:24:37.340Z,2.87
2017-09-06T19:27:03.806Z,3.43
2017-09-06T19:29:33.622Z,3.47
2017-09-06T19:32:00.038Z,5.00
2017-09-06T19:34:26.483Z,4.13
2017-09-06T19:36:52.953Z,3.03
2017-09-06T19:39:19.357Z,3.33
2017-09-06T19:41:45.830Z,4.30
2017-09-06T19:44:12.358Z,3.47
2017-09-06T19:46:38.751Z,4.63
2017-09-06T19:49:05.236Z,3.43
2017-09-06T19:51:32.264Z,4.60
2017-09-06T19:53:58.682Z,3.33
2017-09-06T19:56:25.203Z,4.10
2017-09-06T19:58:51.611Z,2.90
2017-09-06T20:01:17.983Z,5.00
2017-09-06T20:03:44.485Z,4.00
2017-09-06T20:06:11.919Z,6.40
2017-09-06T20:08:38.371Z,3.87
2017-09-06T20:11:04.866Z,5.00
2017-09-06T20:13:31.368Z,3.00
2017-09-06T20:15:57.818Z,3.40
2017-09-06T20:18:25.303Z,4.93
2017-09-06T20:20:51.731Z,4.93
2017-09-06T20:23:18.143Z,2.70
2017-09-06T20:25:44.477Z,5.70
2017-09-06T20:28:10.887Z,6.93
2017-09-06T20:30:37.323Z,5.33
2017-09-06T20:33:03.744Z,4.90
2017-09-06T20:35:30.097Z,4.67
2017-09-06T20:37:56.522Z,6.60
2017-09-06T20:40:23.007Z,4.73
2017-09-06T20:42:49.415Z,3.97
2017-09-06T20:45:16.646Z,4.50
2017-09-06T20:47:43.008Z,4.90
2017-09-06T20:50:09.420Z,3.70
2017-09-06T20:52:35.831Z,6.67
2017-09-06T20:55:02.529Z,4.47
2017-09-06T20:57:29.003Z,4.87
2017-09-06T20:59:55.454Z,4.20
2017-09-06T21:02:21.834Z,3.43
2017-09-06T21:04:48.275Z,4.20
2017-09-06T21:07:14.597Z,6.40
2017-09-06T21:09:41.494Z,4.20
2017-09-06T21:12:07.869Z,3.33
2017-09-06T21:14:34.347Z,3.53
2017-09-06T21:17:00.767Z,6.77
2017-09-06T21:19:27.099Z,2.70
2017-09-06T21:21:53.475Z,3.43
2017-09-06T21:24:20.025Z,4.40
2017-09-06T21:26:46.431Z,5.83
2017-09-06T21:29:12.915Z,4.20
2017-09-06T21:31:39.446Z,3.30
2017-09-06T21:34:05.909Z,4.90
2017-09-06T21:36:32.438Z,3.90
2017-09-06T21:38:59.328Z,4.80
2017-09-06T21:41:25.843Z,5.77
2017-09-06T21:43:53.108Z,6.83
2017-09-06T21:46:19.483Z,3.27
2017-09-06T21:48:46.420Z,5.57
2017-09-06T21:51:14.224Z,6.33
2017-09-06T21:53:41.579Z,3.37
2017-09-06T21:56:08.359Z,4.30
2017-09-06T21:58:35.040Z,4.80
2017-09-06T22:01:01.990Z,3.17
2017-09-06T22:03:29.254Z,7.43
2017-09-06T22:05:55.920Z,7.37
2017-09-06T22:08:22.905Z,2.60
2017-09-06T22:10:49.327Z,2.93
2017-09-06T22:13:15.723Z,6.40
2017-09-06T22:15:43.421Z,3.00
2017-09-06T22:18:09.748Z,3.47
2017-09-06T22:20:36.179Z,4.27
2017-09-06T22:23:02.642Z,5.00
2017-09-06T22:25:29.078Z,4.67
2017-09-06T22:27:55.543Z,4.23
2017-09-06T22:30:21.935Z,3.73
2017-09-06T22:32:48.271Z,8.57
2017-09-06T22:35:16.175Z,2.83
2017-09-06T22:37:42.575Z,7.63
2017-09-06T22:40:09.026Z,4.33
2017-09-06T22:45:26.851Z,4.27
2017-09-06T22:47:53.147Z,4.03
2017-09-06T22:50:19.686Z,6.30
2017-09-06T22:52:46.115Z,5.47
2017-09-06T22:55:12.441Z,5.27
2017-09-06T22:57:38.866Z,6.20
2017-09-06T23:00:05.314Z,4.43
2017-09-06T23:02:31.743Z,4.70
2017-09-06T23:04:58.215Z,5.60
2017-09-06T23:07:24.531Z,5.63
2017-09-06T23:09:51.704Z,6.23
2017-09-06T23:12:18.118Z,6.67
2017-09-06T23:14:44.514Z,5.03
2017-09-06T23:17:10.864Z,5.10
2017-09-06T23:19:37.223Z,5.57
2017-09-06T23:22:03.663Z,6.73
2017-09-06T23:24:30.134Z,3.70
2017-09-06T23:26:56.519Z,6.07
2017-09-06T23:29:22.895Z,3.97
2017-09-06T23:31:49.303Z,4.03
2017-09-06T23:34:15.670Z,8.47
2017-09-06T23:36:42.826Z,3.80
2017-09-06T23:39:09.231Z,4.43
2017-09-06T23:41:35.557Z,3.50
2017-09-06T23:44:02.227Z,5.20
2017-09-06T23:46:28.666Z,6.00
2017-09-06T23:48:55.087Z,5.33
2017-09-06T23:51:21.686Z,8.67
2017-09-06T23:53:48.079Z,6.43
2017-09-06T23:56:14.515Z,4.27
2017-09-06T23:58:40.873Z,4.23
